logo dgac
Lunes 25 de Septiembre del 2017

Metar

Buscar por aerodromo o helipuerto
Ingrese nombre de aeródromo, localidad o designador OACI:


METAR del 26-09-2017 a las 02:00 UTC
METAR SPTN 260200Z 21004KT 170V280 9999 OVC030 13/11 Q1017 RMK PP000
Viento: dirección 210 grados, velocidad 4 nudos
Viento con dirección variable entre 170 y 280 grados
Visibilidad: 10 km o más
Nubes: Cubierto a 3000 pies sobre el nivel del aeródromo
Temperatura: 13 °C
Rocío: 11 °C
Humedad_relativa: 88%
Presión: 1017 hPa
Información adicional:
Nan: PP000
METAR del 26-09-2017 a las 02:00 UTC
METAR SPSO 260200Z 20006KT CAVOK 16/13 Q1014 RMK PP000
Viento: dirección 200 grados, velocidad 6 nudos
Visibilidad: 10 km o más,
    sin nubes bajo los 5.000 pies o bajo del MSA (Mínimo de Seguridad del Aeródromo),
    sin cumulonimbus, y sin fenómenos de tiempo significativo en el aeródromo o alrededores
Temperatura: 16 °C
Rocío: 13 °C
Humedad_relativa: 82%
Presión: 1014 hPa
Información adicional:
Nan: PP000
METAR del 26-09-2017 a las 02:00 UTC
METAR SPRU 260200Z 15008KT 8000 OVC004 16/15 Q1014 RMK BR PP000
Viento: dirección 150 grados, velocidad 8 nudos
Visibilidad: 8000 metros
Nubes: Cubierto a 400 pies sobre el nivel del aeródromo
Temperatura: 16 °C
Rocío: 15 °C
Humedad_relativa: 94%
Presión: 1014 hPa
Información adicional:
Neblina
Nan: PP000
METAR del 26-09-2017 a las 02:00 UTC
METAR SPQU 260200Z 10004KT CAVOK 12/M03 Q1026 NOSIG RMK PP000
Viento: dirección 100 grados, velocidad 4 nudos
Visibilidad: 10 km o más,
    sin nubes bajo los 5.000 pies o bajo del MSA (Mínimo de Seguridad del Aeródromo),
    sin cumulonimbus, y sin fenómenos de tiempo significativo en el aeródromo o alrededores
Temperatura: 12 °C
Rocío: -3 °C
Humedad_relativa: 35%
Presión: 1026 hPa
No se esperan cambios significativos en las próximas 2 horas
Información adicional:
Nan: PP000
METAR del 26-09-2017 a las 02:00 UTC
METAR SPJC 260200Z 17011KT 9999 OVC011 16/13 Q1015 NOSIG RMK PP000
Viento: dirección 170 grados, velocidad 11 nudos
Visibilidad: 10 km o más
Nubes: Cubierto a 1100 pies sobre el nivel del aeródromo
Temperatura: 16 °C
Rocío: 13 °C
Humedad_relativa: 82%
Presión: 1015 hPa
No se esperan cambios significativos en las próximas 2 horas
Información adicional:
Nan: PP000
METAR del 26-09-2017 a las 02:00 UTC
METAR SPHI 260200Z 18014KT 9999 OVC006 16/15 Q1014 RMK BIRD HAZARD RWY 19/01 PP000
Viento: dirección 180 grados, velocidad 14 nudos
Visibilidad: 10 km o más
Nubes: Cubierto a 600 pies sobre el nivel del aeródromo
Temperatura: 16 °C
Rocío: 15 °C
Humedad_relativa: 94%
Presión: 1014 hPa
Información adicional:
Nan: BIRD
Nan: HAZARD
Wind-shear: Pista
Temperatura: 19 °C
Rocío: 1 °C
Humedad_relativa: 30%
Nan: PP000
METAR del 26-09-2017 a las 02:00 UTC
METAR SLVR 260200Z 12005KT 5000 FU SCT023 BKN070 27/19 Q1014
Viento: dirección 120 grados, velocidad 5 nudos
Visibilidad: 5000 metros
Humo
Nubes: Nubosidad parcial a 2300 pies sobre el nivel del aeródromo
Nubes: Nublado a 7000 pies sobre el nivel del aeródromo
Temperatura: 27 °C
Rocío: 19 °C
Humedad_relativa: 62%
Presión: 1014 hPa
METAR del 26-09-2017 a las 02:00 UTC
METAR SLLP 260200Z 08006KT 9999 FEW013 SCT200 05/M00 Q1037
Viento: dirección 080 grados, velocidad 6 nudos
Visibilidad: 10 km o más
Nubes: Escasa nubosidad a 1300 pies sobre el nivel del aeródromo
Nubes: Nubosidad parcial a 20000 pies sobre el nivel del aeródromo
Temperatura: 5 °C
Rocío: -0 °C
Humedad_relativa: 70%
Presión: 1037 hPa
METAR del 26-09-2017 a las 02:00 UTC
METAR SCBA 260200Z AUTO 30006KT CAVOK 01/M02 Q1026
Nan: AUTO
Viento: dirección 300 grados, velocidad 6 nudos
Visibilidad: 10 km o más,
    sin nubes bajo los 5.000 pies o bajo del MSA (Mínimo de Seguridad del Aeródromo),
    sin cumulonimbus, y sin fenómenos de tiempo significativo en el aeródromo o alrededores
Temperatura: 1 °C
Rocío: -2 °C
Humedad_relativa: 80%
Presión: 1026 hPa
METAR del 26-09-2017 a las 02:00 UTC
METAR SCCY 260200Z AUTO VRB02KT CAVOK 00/M02 Q1028
Nan: AUTO
Viento: dirección variable, velocidad 2 nudos
Visibilidad: 10 km o más,
    sin nubes bajo los 5.000 pies o bajo del MSA (Mínimo de Seguridad del Aeródromo),
    sin cumulonimbus, y sin fenómenos de tiempo significativo en el aeródromo o alrededores
Temperatura: 0 °C
Rocío: -2 °C
Humedad_relativa: 86%
Presión: 1028 hPa